Uruguaiana, Brazil
Current Conditions -  °F | °C
As of 7:00 PM on Thursday 27 Nov 2014 (Local Time) from SBUG Reporting Station
Clear Clear  
Wind Chill: 82°   Ceiling: Unl
Heat Index: 82°   Visibility: 6mi
Dew Point: 55°   Wind: 9mph
Humidity: 39%   Direction: 170°S
Pressure: 29.88"   Gusts: NA
Location:  29.77°S, 57.09°W
Report Text: SBUG 272100Z 17008KT CAVOK 28/13 Q1012
Loading
Personal Weather Stations






























Interactive Weather Map New forecast layout! Learn more

10-Day Weather Forecast

Advertisements
Track Severe Weather on mobile